Time;durP1;ratioP1;P1;durP2;ratioP2;P2;SDS_P1;SDS_P2;PMS_P1;PMS_P2;Temp;Humidity;BMP_temperature;BMP_pressure;BME280_temperature;BME280_humidity;BME280_pressure;Samples;Min_cycle;Max_cycle;Signal;HPM_P1;HPM_P2
2022/10/13 00:00:15;;;;;;;;;;;10.00;99.90;;;;;;4974620;28;20397;-74
2022/10/13 00:02:41;;;;;;;;;;;10.00;99.90;;;;;;4992868;28;24135;-75
2022/10/13 00:05:07;;;;;;;;;;;10.00;99.90;;;;;;4991683;28;19971;-75
2022/10/13 00:07:32;;;;;;;;;;;10.00;99.90;;;;;;4993857;28;19919;-75
2022/10/13 00:09:58;;;;;;;;;;;10.10;99.90;;;;;;4994392;28;20964;-75
2022/10/13 00:12:23;;;;;;;;;;;10.00;99.90;;;;;;4972865;28;20239;-74
2022/10/13 00:14:49;;;;;;;;;;;10.10;99.90;;;;;;4991959;28;21154;-74
2022/10/13 00:17:14;;;;;;;;;;;10.10;99.90;;;;;;4992637;28;19917;-74
2022/10/13 00:19:40;;;;;;;;;;;10.10;99.90;;;;;;4993228;28;19916;-75
2022/10/13 00:22:05;;;;;;;;;;;10.20;99.90;;;;;;4993855;28;20054;-75
2022/10/13 00:24:31;;;;;;;;;;;10.20;99.90;;;;;;4993748;28;19920;-75
2022/10/13 00:26:57;;;;;;;;;;;10.30;99.90;;;;;;4993782;28;19923;-75
2022/10/13 00:29:22;;;;;;;;;;;10.30;99.90;;;;;;4979482;28;21339;-75
2022/10/13 00:31:48;;;;;;;;;;;10.40;99.90;;;;;;4993779;28;20021;-76
2022/10/13 00:34:13;;;;;;;;;;;10.40;99.90;;;;;;4995214;28;19916;-75
2022/10/13 00:36:39;;;;;;;;;;;10.40;99.90;;;;;;4992714;28;19985;-75
2022/10/13 00:39:05;;;;;;;;;;;10.50;99.90;;;;;;4973951;28;19916;-76
2022/10/13 00:41:30;;;;;;;;;;;10.50;99.90;;;;;;4971360;28;19920;-75
2022/10/13 00:44:06;;;;;;;;;;;10.50;99.90;;;;;;4992909;28;19916;-74
2022/10/13 00:46:33;;;;;;;;;;;10.60;99.90;;;;;;4974471;28;19923;-75
2022/10/13 00:49:00;;;;;;;;;;;10.60;99.90;;;;;;4993764;28;20016;-75
2022/10/13 00:51:27;;;;;;;;;;;10.70;99.90;;;;;;4993390;28;19934;-75
2022/10/13 00:53:55;;;;;;;;;;;10.70;99.90;;;;;;4992200;28;20008;-75
2022/10/13 00:56:22;;;;;;;;;;;10.70;99.90;;;;;;4973165;28;19920;-75
2022/10/13 00:58:48;;;;;;;;;;;10.80;99.90;;;;;;4994362;28;19916;-75
2022/10/13 01:01:14;;;;;;;;;;;10.80;99.90;;;;;;4992396;28;21791;-75
2022/10/13 01:03:39;;;;;;;;;;;10.90;99.90;;;;;;4990700;28;19923;-75
2022/10/13 01:06:06;;;;;;;;;;;11.00;99.90;;;;;;4994602;28;20630;-76
2022/10/13 01:08:32;;;;;;;;;;;11.00;99.90;;;;;;4994956;28;19916;-76
2022/10/13 01:11:16;;;;;;;;;;;11.10;99.90;;;;;;4972598;28;19931;-76
2022/10/13 01:13:48;;;;;;;;;;;11.10;99.90;;;;;;4992560;28;20111;-75
2022/10/13 01:16:19;;;;;;;;;;;11.20;99.90;;;;;;4992486;28;20006;-75
2022/10/13 01:18:48;;;;;;;;;;;11.30;99.90;;;;;;4990983;28;20215;-76
2022/10/13 01:21:26;;;;;;;;;;;11.30;99.90;;;;;;4992154;28;20777;-75
2022/10/13 01:24:00;;;;;;;;;;;11.30;99.90;;;;;;4992557;28;21165;-75
2022/10/13 01:26:41;;;;;;;;;;;11.40;99.90;;;;;;4990717;28;23669;-75
2022/10/13 01:29:13;;;;;;;;;;;11.40;99.90;;;;;;4993829;28;19957;-76
2022/10/13 01:31:38;;;;;;;;;;;11.50;99.90;;;;;;4991916;28;20671;-76
2022/10/13 01:34:07;;;;;;;;;;;11.50;99.90;;;;;;4992818;28;19925;-76
2022/10/13 01:36:46;;;;;;;;;;;11.60;99.90;;;;;;4992535;28;20337;-76
2022/10/13 01:39:15;;;;;;;;;;;11.60;99.90;;;;;;4990521;28;19916;-75
2022/10/13 01:41:42;;;;;;;;;;;11.70;99.90;;;;;;4990763;28;22109;-74
2022/10/13 01:44:11;;;;;;;;;;;11.70;99.90;;;;;;4982213;28;19916;-75
2022/10/13 01:46:37;;;;;;;;;;;11.70;99.90;;;;;;4992518;28;23709;-75
2022/10/13 01:49:05;;;;;;;;;;;11.80;99.90;;;;;;4971800;28;20031;-76
2022/10/13 01:51:31;;;;;;;;;;;11.70;99.90;;;;;;4972868;28;19948;-75
2022/10/13 01:53:57;;;;;;;;;;;11.70;99.90;;;;;;4994288;28;20053;-74
2022/10/13 01:56:22;;;;;;;;;;;11.70;99.90;;;;;;4970681;28;20355;-74
2022/10/13 01:58:49;;;;;;;;;;;11.70;99.90;;;;;;4991623;28;19973;-74
2022/10/13 02:01:27;;;;;;;;;;;11.70;99.90;;;;;;4991083;28;20374;-73
2022/10/13 02:04:11;;;;;;;;;;;11.70;99.90;;;;;;4993125;28;19938;-73
2022/10/13 02:06:42;;;;;;;;;;;11.70;99.90;;;;;;4990495;28;21063;-72
2022/10/13 02:09:12;;;;;;;;;;;11.70;99.90;;;;;;4973649;28;19965;-72
2022/10/13 02:11:41;;;;;;;;;;;11.80;99.90;;;;;;4991577;28;19924;-73
2022/10/13 02:14:10;;;;;;;;;;;11.70;99.90;;;;;;4989993;28;21897;-73
2022/10/13 02:16:38;;;;;;;;;;;11.70;99.90;;;;;;4988839;28;19958;-73
2022/10/13 02:19:05;;;;;;;;;;;11.70;99.90;;;;;;4990857;28;19975;-74
2022/10/13 02:21:31;;;;;;;;;;;11.70;99.90;;;;;;4971115;28;19920;-74
2022/10/13 02:23:56;;;;;;;;;;;11.70;99.90;;;;;;4992222;28;20264;-74
2022/10/13 02:26:22;;;;;;;;;;;11.70;99.90;;;;;;4992695;28;19922;-75
2022/10/13 02:28:48;;;;;;;;;;;11.60;99.90;;;;;;4995119;28;19956;-73
2022/10/13 02:31:13;;;;;;;;;;;11.60;99.90;;;;;;4989253;28;19928;-73
2022/10/13 02:33:39;;;;;;;;;;;11.60;99.90;;;;;;4991811;28;20043;-73
2022/10/13 02:36:04;;;;;;;;;;;11.60;99.90;;;;;;4973043;28;19916;-73
2022/10/13 02:38:30;;;;;;;;;;;11.60;99.90;;;;;;4974666;28;19928;-73
2022/10/13 02:40:55;;;;;;;;;;;11.60;99.90;;;;;;4990940;28;19916;-74
2022/10/13 02:43:21;;;;;;;;;;;11.60;99.90;;;;;;4973468;28;19917;-74
2022/10/13 02:45:46;;;;;;;;;;;11.60;99.90;;;;;;4995596;28;19921;-74
2022/10/13 02:48:12;;;;;;;;;;;11.50;99.90;;;;;;4996360;28;23626;-74
2022/10/13 02:50:38;;;;;;;;;;;11.40;99.90;;;;;;4979329;28;19947;-75
2022/10/13 02:53:03;;;;;;;;;;;11.40;99.90;;;;;;4973264;28;19920;-74
2022/10/13 02:55:29;;;;;;;;;;;11.40;99.90;;;;;;4996018;28;19916;-74
2022/10/13 02:57:54;;;;;;;;;;;11.50;99.90;;;;;;4995066;28;20052;-74
2022/10/13 03:00:20;;;;;;;;;;;11.50;99.90;;;;;;4997246;28;19916;-74
2022/10/13 03:02:46;;;;;;;;;;;11.50;99.90;;;;;;4976171;28;19960;-74
2022/10/13 03:05:11;;;;;;;;;;;11.50;99.90;;;;;;4974387;28;19945;-74
2022/10/13 03:07:37;;;;;;;;;;;11.60;99.90;;;;;;4975109;28;19981;-73
2022/10/13 03:10:03;;;;;;;;;;;11.60;99.90;;;;;;4995000;28;19923;-74
2022/10/13 03:12:29;;;;;;;;;;;11.60;99.90;;;;;;4976356;28;23996;-74
2022/10/13 03:14:55;;;;;;;;;;;11.60;99.90;;;;;;4996326;28;20679;-74
2022/10/13 03:17:20;;;;;;;;;;;11.60;99.90;;;;;;4975714;28;19962;-75
2022/10/13 03:19:46;;;;;;;;;;;11.70;99.90;;;;;;4977214;28;19922;-75
2022/10/13 03:22:14;;;;;;;;;;;11.60;99.90;;;;;;4992430;28;20113;-75
2022/10/13 03:24:40;;;;;;;;;;;11.60;99.90;;;;;;4995506;28;20219;-74
2022/10/13 03:27:05;;;;;;;;;;;11.60;99.90;;;;;;4995012;28;19936;-75
2022/10/13 03:29:31;;;;;;;;;;;11.60;99.90;;;;;;4991212;28;19916;-74
2022/10/13 03:31:56;;;;;;;;;;;11.60;99.90;;;;;;4995487;28;19935;-74
2022/10/13 03:34:22;;;;;;;;;;;11.60;99.90;;;;;;4993605;28;19994;-74
2022/10/13 03:36:48;;;;;;;;;;;11.60;99.90;;;;;;4994566;28;19920;-76
2022/10/13 03:39:13;;;;;;;;;;;11.60;99.90;;;;;;4974616;28;19939;-74
2022/10/13 03:41:39;;;;;;;;;;;11.60;99.90;;;;;;4976093;28;20543;-74
2022/10/13 03:44:06;;;;;;;;;;;11.60;99.90;;;;;;4996510;28;19916;-74
2022/10/13 03:46:32;;;;;;;;;;;11.60;99.90;;;;;;4975254;28;19916;-73
2022/10/13 03:48:57;;;;;;;;;;;11.60;99.90;;;;;;4975519;28;20569;-74
2022/10/13 03:51:23;;;;;;;;;;;11.60;99.90;;;;;;4976464;28;19927;-74
2022/10/13 03:53:50;;;;;;;;;;;11.60;99.90;;;;;;4996562;28;19994;-75
2022/10/13 03:56:17;;;;;;;;;;;11.60;99.90;;;;;;4993247;28;21431;-73
2022/10/13 03:58:43;;;;;;;;;;;11.70;99.90;;;;;;4994033;28;19970;-73
2022/10/13 04:01:09;;;;;;;;;;;11.70;99.90;;;;;;4993851;28;19951;-73
2022/10/13 04:03:38;;;;;;;;;;;11.70;99.90;;;;;;4973781;28;19915;-74
2022/10/13 04:06:04;;;;;;;;;;;11.70;99.90;;;;;;4991022;28;20368;-74
2022/10/13 04:08:30;;;;;;;;;;;11.70;99.90;;;;;;4992561;28;19916;-73
2022/10/13 04:11:04;;;;;;;;;;;11.70;99.90;;;;;;4972125;28;19967;-73
2022/10/13 04:13:30;;;;;;;;;;;11.70;99.90;;;;;;4989510;28;19916;-75
2022/10/13 04:16:00;;;;;;;;;;;11.60;99.90;;;;;;4993529;28;19923;-74
2022/10/13 04:18:26;;;;;;;;;;;11.70;99.90;;;;;;4992194;28;19916;-73
2022/10/13 04:20:51;;;;;;;;;;;11.70;99.90;;;;;;4990539;28;19962;-74
2022/10/13 04:23:17;;;;;;;;;;;11.70;99.90;;;;;;4991825;28;20009;-74
2022/10/13 04:25:43;;;;;;;;;;;11.70;99.90;;;;;;4996062;28;19944;-74
2022/10/13 04:28:09;;;;;;;;;;;11.70;99.90;;;;;;4992442;28;19923;-73
2022/10/13 04:30:35;;;;;;;;;;;11.70;99.90;;;;;;4991285;28;20520;-75
2022/10/13 04:33:01;;;;;;;;;;;11.80;99.90;;;;;;4992677;28;20401;-75
2022/10/13 04:35:26;;;;;;;;;;;11.80;99.90;;;;;;4995992;28;19922;-74
2022/10/13 04:37:52;;;;;;;;;;;11.80;99.90;;;;;;4995313;28;20531;-74
2022/10/13 04:40:17;;;;;;;;;;;11.80;99.90;;;;;;4993329;28;19938;-77
2022/10/13 04:42:43;;;;;;;;;;;11.80;99.90;;;;;;4991966;28;23751;-75
2022/10/13 04:45:09;;;;;;;;;;;11.80;99.90;;;;;;4973511;28;19920;-74
2022/10/13 04:47:35;;;;;;;;;;;11.90;99.90;;;;;;4975714;28;20290;-74
2022/10/13 04:50:01;;;;;;;;;;;11.80;99.90;;;;;;4991970;28;19920;-74
2022/10/13 04:52:27;;;;;;;;;;;11.90;99.90;;;;;;4993101;28;20579;-75
2022/10/13 04:54:52;;;;;;;;;;;12.00;99.90;;;;;;4994233;28;19916;-74
2022/10/13 04:57:18;;;;;;;;;;;11.70;99.90;;;;;;4993675;28;19916;-73
2022/10/13 04:59:44;;;;;;;;;;;11.90;99.90;;;;;;4975751;28;20050;-74
2022/10/13 05:02:10;;;;;;;;;;;11.90;99.90;;;;;;4990581;28;19962;-75
2022/10/13 05:04:35;;;;;;;;;;;12.00;99.90;;;;;;4992914;28;19920;-75
2022/10/13 05:07:01;;;;;;;;;;;12.00;99.90;;;;;;4989746;28;20346;-74
2022/10/13 05:09:26;;;;;;;;;;;12.00;99.90;;;;;;4993494;28;19967;-74
2022/10/13 05:11:54;;;;;;;;;;;12.00;99.90;;;;;;4990791;28;19990;-74
2022/10/13 05:14:20;;;;;;;;;;;12.10;99.90;;;;;;4991227;28;20363;-74
2022/10/13 05:16:46;;;;;;;;;;;12.10;99.90;;;;;;4992392;28;21505;-73
2022/10/13 05:19:11;;;;;;;;;;;12.10;99.90;;;;;;4990857;28;21286;-73
2022/10/13 05:21:37;;;;;;;;;;;12.10;99.90;;;;;;4990847;28;20200;-74
2022/10/13 05:24:04;;;;;;;;;;;12.10;99.90;;;;;;4992350;28;21105;-74
2022/10/13 05:26:32;;;;;;;;;;;12.20;99.90;;;;;;4972882;28;20002;-75
2022/10/13 05:28:58;;;;;;;;;;;12.20;99.90;;;;;;4973637;28;20688;-74
2022/10/13 05:31:25;;;;;;;;;;;12.20;99.90;;;;;;4990617;28;19928;-75
2022/10/13 05:33:51;;;;;;;;;;;12.20;99.90;;;;;;4991089;28;19920;-74
2022/10/13 05:36:21;;;;;;;;;;;12.20;99.90;;;;;;4992505;28;19916;-75
2022/10/13 05:38:53;;;;;;;;;;;12.20;99.90;;;;;;4974873;28;20027;-75
2022/10/13 05:41:19;;;;;;;;;;;12.30;99.90;;;;;;4993875;28;19916;-79
2022/10/13 05:43:45;;;;;;;;;;;12.30;99.90;;;;;;4992390;28;24178;-75
2022/10/13 05:46:11;;;;;;;;;;;12.20;99.90;;;;;;4991980;28;19916;-75
2022/10/13 05:48:37;;;;;;;;;;;12.20;99.90;;;;;;4992964;28;19963;-75
2022/10/13 05:51:05;;;;;;;;;;;12.30;99.90;;;;;;4990745;28;19924;-74
2022/10/13 05:53:32;;;;;;;;;;;12.30;99.90;;;;;;4988976;28;20307;-75
2022/10/13 05:56:04;;;;;;;;;;;12.30;99.90;;;;;;4992253;28;19916;-75
2022/10/13 05:58:42;;;;;;;;;;;12.30;99.90;;;;;;4990516;28;19952;-75
2022/10/13 06:01:09;;;;;;;;;;;12.30;99.90;;;;;;4974308;28;19916;-74
2022/10/13 06:03:35;;;;;;;;;;;12.30;99.90;;;;;;4971154;28;21168;-74
2022/10/13 06:06:01;;;;;;;;;;;12.30;99.90;;;;;;4989964;28;19967;-74
2022/10/13 06:08:28;;;;;;;;;;;12.30;99.90;;;;;;4973765;28;19920;-74
2022/10/13 06:10:53;;;;;;;;;;;12.60;99.90;;;;;;4988092;28;20035;-73
2022/10/13 06:13:19;;;;;;;;;;;12.30;99.90;;;;;;4986175;28;19916;-75
2022/10/13 06:15:45;;;;;;;;;;;12.40;99.90;;;;;;4984776;28;20788;-75
2022/10/13 06:18:10;;;;;;;;;;;12.40;99.90;;;;;;4987125;28;20319;-74
2022/10/13 06:20:36;;;;;;;;;;;12.40;99.90;;;;;;4989773;28;19916;-75
2022/10/13 06:23:02;;;;;;;;;;;12.40;99.90;;;;;;4988555;28;20591;-74
2022/10/13 06:25:28;;;;;;;;;;;12.40;99.90;;;;;;4988346;28;19916;-74
2022/10/13 06:27:55;;;;;;;;;;;12.40;99.90;;;;;;4967688;28;20778;-75
2022/10/13 06:30:21;;;;;;;;;;;12.40;99.90;;;;;;4979847;28;19968;-75
2022/10/13 06:32:46;;;;;;;;;;;12.40;99.90;;;;;;4980063;28;19924;-75
2022/10/13 06:35:12;;;;;;;;;;;12.40;99.90;;;;;;4983203;28;19970;-74
2022/10/13 06:37:38;;;;;;;;;;;12.40;99.90;;;;;;4986752;28;19923;-74
2022/10/13 06:40:04;;;;;;;;;;;12.40;99.90;;;;;;4987493;28;19923;-75
2022/10/13 06:42:30;;;;;;;;;;;12.40;99.90;;;;;;4986778;28;20051;-75
2022/10/13 06:44:56;;;;;;;;;;;12.40;99.90;;;;;;4986963;28;20643;-74
2022/10/13 06:47:22;;;;;;;;;;;12.40;99.90;;;;;;4992286;28;19923;-74
2022/10/13 06:49:47;;;;;;;;;;;12.40;99.90;;;;;;4984818;28;19924;-75
2022/10/13 06:52:13;;;;;;;;;;;12.40;99.90;;;;;;4989199;28;19974;-75
2022/10/13 06:54:38;;;;;;;;;;;12.50;99.90;;;;;;4968586;28;19920;-77
2022/10/13 06:57:04;;;;;;;;;;;12.50;99.90;;;;;;4987597;28;20643;-75
2022/10/13 06:59:30;;;;;;;;;;;12.50;99.90;;;;;;4967563;28;20055;-75
2022/10/13 07:01:55;;;;;;;;;;;12.50;99.90;;;;;;4987004;28;20597;-75
2022/10/13 07:04:22;;;;;;;;;;;12.60;99.90;;;;;;4986108;28;20323;-75
2022/10/13 07:06:49;;;;;;;;;;;12.60;99.90;;;;;;4986590;28;20018;-75
2022/10/13 07:09:15;;;;;;;;;;;12.60;99.90;;;;;;4967708;28;20715;-75
2022/10/13 07:11:42;;;;;;;;;;;12.50;99.90;;;;;;4987938;28;20509;-75
2022/10/13 07:14:08;;;;;;;;;;;12.50;99.90;;;;;;4966857;28;19917;-75
2022/10/13 07:16:33;;;;;;;;;;;12.50;99.90;;;;;;4989010;28;21742;-74
2022/10/13 07:18:59;;;;;;;;;;;12.60;99.90;;;;;;4968754;28;20354;-74
2022/10/13 07:21:25;;;;;;;;;;;12.60;99.90;;;;;;4984689;28;19936;-75
2022/10/13 07:23:50;;;;;;;;;;;12.50;99.90;;;;;;4968061;28;19915;-75
2022/10/13 07:26:16;;;;;;;;;;;12.50;99.90;;;;;;4987282;28;21815;-74
2022/10/13 07:28:42;;;;;;;;;;;12.60;99.90;;;;;;4985138;28;19916;-75
2022/10/13 07:31:10;;;;;;;;;;;12.60;99.90;;;;;;4968916;28;20646;-75
2022/10/13 07:33:39;;;;;;;;;;;12.60;99.90;;;;;;4970633;28;20383;-75
2022/10/13 07:36:05;;;;;;;;;;;12.60;99.90;;;;;;4988986;28;20658;-75
2022/10/13 07:38:31;;;;;;;;;;;12.60;99.90;;;;;;4991907;28;19916;-75
2022/10/13 07:41:01;;;;;;;;;;;12.70;99.90;;;;;;4990134;28;20023;-75
2022/10/13 07:43:27;;;;;;;;;;;12.70;99.90;;;;;;4969892;28;19920;-75
2022/10/13 07:45:52;;;;;;;;;;;12.70;99.90;;;;;;4970647;28;19988;-76
2022/10/13 07:48:18;;;;;;;;;;;12.80;99.90;;;;;;4989328;28;24499;-76
2022/10/13 07:50:43;;;;;;;;;;;12.80;99.90;;;;;;4989489;28;20011;-75
2022/10/13 07:53:09;;;;;;;;;;;12.90;99.90;;;;;;4968393;28;19922;-75
2022/10/13 07:55:35;;;;;;;;;;;12.90;99.90;;;;;;4970492;28;20536;-75
2022/10/13 07:58:01;;;;;;;;;;;13.00;99.90;;;;;;4990123;28;20382;-75
2022/10/13 08:00:26;;;;;;;;;;;13.00;99.90;;;;;;4989305;28;19964;-75
2022/10/13 08:02:52;;;;;;;;;;;13.10;99.90;;;;;;4989576;28;19958;-75
2022/10/13 08:05:17;;;;;;;;;;;13.10;99.90;;;;;;4991925;28;19927;-76
2022/10/13 08:07:43;;;;;;;;;;;13.30;99.90;;;;;;4990273;28;20364;-75
2022/10/13 08:10:09;;;;;;;;;;;13.30;99.90;;;;;;4988979;28;20015;-75
2022/10/13 08:12:35;;;;;;;;;;;13.30;99.90;;;;;;4991218;28;19981;-76
2022/10/13 08:15:00;;;;;;;;;;;13.30;99.90;;;;;;4990903;28;19916;-75
2022/10/13 08:17:26;;;;;;;;;;;13.40;99.90;;;;;;4971472;28;19999;-74
2022/10/13 08:19:52;;;;;;;;;;;13.40;99.90;;;;;;4990656;28;23986;-76
2022/10/13 08:22:17;;;;;;;;;;;13.50;99.90;;;;;;4991435;28;19916;-78
2022/10/13 08:24:43;;;;;;;;;;;13.50;99.90;;;;;;4991410;28;19915;-76
2022/10/13 08:27:09;;;;;;;;;;;13.50;99.90;;;;;;4991140;28;21416;-75
2022/10/13 08:29:35;;;;;;;;;;;13.60;99.90;;;;;;4969864;28;20204;-77
2022/10/13 08:32:00;;;;;;;;;;;13.70;99.90;;;;;;4989696;28;19981;-76
2022/10/13 08:34:26;;;;;;;;;;;13.70;99.90;;;;;;4972179;28;20829;-77
2022/10/13 08:36:53;;;;;;;;;;;13.70;99.90;;;;;;4989989;28;20437;-75
2022/10/13 08:39:18;;;;;;;;;;;13.80;99.90;;;;;;4989277;28;23630;-76
2022/10/13 08:41:44;;;;;;;;;;;13.80;99.90;;;;;;4972017;28;19920;-75
2022/10/13 08:44:33;;;;;;;;;;;13.70;99.90;;;;;;4990278;28;19916;-76
2022/10/13 08:47:02;;;;;;;;;;;13.80;99.90;;;;;;4990133;28;20389;-77
2022/10/13 08:49:28;;;;;;;;;;;13.70;99.90;;;;;;4972885;28;20291;-76
2022/10/13 08:51:54;;;;;;;;;;;13.80;99.90;;;;;;4990358;28;23911;-76
2022/10/13 08:54:20;;;;;;;;;;;13.80;99.90;;;;;;4990190;28;19920;-77
2022/10/13 08:56:49;;;;;;;;;;;13.80;99.90;;;;;;4989062;28;20014;-75
2022/10/13 08:59:16;;;;;;;;;;;13.80;99.90;;;;;;4988335;28;23955;-77
2022/10/13 09:01:42;;;;;;;;;;;13.90;99.90;;;;;;4970302;28;19959;-77
2022/10/13 09:04:10;;;;;;;;;;;13.90;99.90;;;;;;4990583;28;19916;-75
2022/10/13 09:06:38;;;;;;;;;;;13.90;99.90;;;;;;4989403;28;20379;-78
2022/10/13 09:09:06;;;;;;;;;;;14.00;99.90;;;;;;4988720;28;19916;-78
2022/10/13 09:11:35;;;;;;;;;;;14.00;99.90;;;;;;4988785;28;19977;-75
2022/10/13 09:14:03;;;;;;;;;;;14.10;99.90;;;;;;4989399;28;19923;-76
2022/10/13 09:16:43;;;;;;;;;;;14.10;99.90;;;;;;4970298;28;19923;-79
2022/10/13 09:19:29;;;;;;;;;;;14.10;99.90;;;;;;4970169;28;20879;-77
2022/10/13 09:21:55;;;;;;;;;;;14.10;99.90;;;;;;4987049;28;19916;-76
2022/10/13 09:24:22;;;;;;;;;;;14.10;99.90;;;;;;4989863;28;19916;-80
2022/10/13 09:26:49;;;;;;;;;;;14.00;99.90;;;;;;4968649;28;20518;-76
2022/10/13 09:29:16;;;;;;;;;;;14.10;99.90;;;;;;4968337;28;23784;-75
2022/10/13 09:31:42;;;;;;;;;;;14.20;99.90;;;;;;4989288;28;19961;-75
2022/10/13 09:34:12;;;;;;;;;;;14.20;99.90;;;;;;4990912;28;20088;-78
2022/10/13 09:36:38;;;;;;;;;;;14.20;99.90;;;;;;4971655;28;20222;-75
2022/10/13 09:39:06;;;;;;;;;;;14.20;99.90;;;;;;4989326;28;20046;-76
2022/10/13 09:41:32;;;;;;;;;;;14.20;99.90;;;;;;4988447;28;19928;-76
2022/10/13 09:43:59;;;;;;;;;;;14.20;99.90;;;;;;4986242;28;20446;-75
2022/10/13 09:46:24;;;;;;;;;;;14.10;99.90;;;;;;4988631;28;19916;-75
2022/10/13 09:48:52;;;;;;;;;;;14.20;99.90;;;;;;4989054;28;19916;-76
2022/10/13 09:51:36;;;;;;;;;;;14.10;99.90;;;;;;4988611;28;20584;-76
2022/10/13 09:54:02;;;;;;;;;;;14.10;99.90;;;;;;4987833;28;20630;-76
2022/10/13 09:56:49;;;;;;;;;;;14.10;99.90;;;;;;4987500;28;19916;-75
2022/10/13 09:59:25;;;;;;;;;;;14.10;99.90;;;;;;4982272;28;19916;-75
2022/10/13 10:01:53;;;;;;;;;;;13.90;99.90;;;;;;4987948;28;19916;-75
2022/10/13 10:04:21;;;;;;;;;;;14.00;99.90;;;;;;4987759;28;19916;-75
2022/10/13 10:06:47;;;;;;;;;;;13.90;99.90;;;;;;4990522;28;19926;-75
2022/10/13 10:09:24;;;;;;;;;;;13.90;99.90;;;;;;4970300;28;19916;-75
2022/10/13 10:11:52;;;;;;;;;;;13.90;99.90;;;;;;4989544;28;19923;-75
2022/10/13 10:14:25;;;;;;;;;;;13.90;99.90;;;;;;4988817;28;19919;-75
2022/10/13 10:16:53;;;;;;;;;;;13.90;99.90;;;;;;4987909;28;19923;-75
2022/10/13 10:19:23;;;;;;;;;;;13.80;99.90;;;;;;4988800;28;19916;-75
2022/10/13 10:21:55;;;;;;;;;;;13.80;99.90;;;;;;4968585;28;20222;-75
2022/10/13 10:24:29;;;;;;;;;;;13.90;99.90;;;;;;4988849;28;19920;-75
2022/10/13 10:26:58;;;;;;;;;;;13.90;99.90;;;;;;4987199;28;20014;-75
2022/10/13 10:29:36;;;;;;;;;;;13.90;99.90;;;;;;4989314;28;20398;-76
2022/10/13 10:32:14;;;;;;;;;;;14.00;99.90;;;;;;4966773;28;21176;-75
2022/10/13 10:34:58;;;;;;;;;;;13.90;99.90;;;;;;4967368;28;19918;-75
2022/10/13 10:37:33;;;;;;;;;;;14.00;99.90;;;;;;4967792;28;19916;-75
2022/10/13 10:40:24;;;;;;;;;;;14.10;99.90;;;;;;4967646;28;20840;-76
2022/10/13 10:42:56;;;;;;;;;;;14.20;99.90;;;;;;4965806;28;19916;-76
2022/10/13 10:45:25;;;;;;;;;;;14.20;99.90;;;;;;4968404;28;19923;-75
2022/10/13 10:47:53;;;;;;;;;;;14.20;99.90;;;;;;4968901;28;20408;-74
2022/10/13 10:50:19;;;;;;;;;;;14.30;99.90;;;;;;4966371;28;19917;-76
2022/10/13 10:53:05;;;;;;;;;;;14.30;99.90;;;;;;4969969;28;19931;-75
2022/10/13 10:56:06;;;;;;;;;;;14.40;99.90;;;;;;4960679;28;21164;-75
2022/10/13 10:58:35;;;;;;;;;;;14.40;99.90;;;;;;5027574;28;19957;-76
2022/10/13 11:01:18;;;;;;;;;;;14.40;99.90;;;;;;5024593;28;19909;-79
2022/10/13 11:03:50;;;;;;;;;;;14.30;99.90;;;;;;4913281;28;19972;-77
2022/10/13 11:06:15;;;;;;;;;;;14.40;99.90;;;;;;4932726;28;20103;-77
2022/10/13 11:08:48;;;;;;;;;;;14.40;99.90;;;;;;4929774;28;19960;-75
2022/10/13 11:11:19;;;;;;;;;;;14.50;99.90;;;;;;4913117;28;19964;-76
2022/10/13 11:13:58;;;;;;;;;;;14.50;99.90;;;;;;4930615;28;21023;-77
2022/10/13 11:16:40;;;;;;;;;;;14.50;99.90;;;;;;4930090;28;20915;-76
2022/10/13 11:19:24;;;;;;;;;;;14.60;99.90;;;;;;4928835;28;19917;-77
2022/10/13 11:21:53;;;;;;;;;;;14.60;99.90;;;;;;4930873;28;20509;-76
2022/10/13 11:24:37;;;;;;;;;;;14.60;99.90;;;;;;4931573;28;19924;-80
2022/10/13 11:27:03;;;;;;;;;;;14.60;99.90;;;;;;4930747;28;19916;-78
2022/10/13 11:29:56;;;;;;;;;;;14.60;99.90;;;;;;4929528;28;20572;-76
2022/10/13 11:32:25;;;;;;;;;;;14.50;99.90;;;;;;4947071;28;19928;-76
2022/10/13 11:34:58;;;;;;;;;;;14.50;99.90;;;;;;4970249;28;19947;-75
2022/10/13 11:37:27;;;;;;;;;;;14.60;99.90;;;;;;4970920;28;20631;-76
2022/10/13 11:39:54;;;;;;;;;;;14.50;99.90;;;;;;4972607;28;20005;-75
2022/10/13 11:42:44;;;;;;;;;;;14.40;99.90;;;;;;4971738;28;19927;-75
2022/10/13 11:45:10;;;;;;;;;;;14.40;99.90;;;;;;4968673;28;20055;-75
2022/10/13 11:47:48;;;;;;;;;;;14.30;99.90;;;;;;4969738;28;19916;-76
2022/10/13 11:50:32;;;;;;;;;;;14.20;99.90;;;;;;4985271;28;19923;-75
2022/10/13 11:53:17;;;;;;;;;;;14.10;99.90;;;;;;4971856;28;20323;-74
2022/10/13 11:55:43;;;;;;;;;;;14.10;99.90;;;;;;4966551;28;19916;-76
2022/10/13 11:58:13;;;;;;;;;;;14.00;99.90;;;;;;4969442;28;19964;-76
2022/10/13 12:00:48;;;;;;;;;;;14.00;99.90;;;;;;4967884;28;19921;-75
2022/10/13 12:03:36;;;;;;;;;;;14.00;99.90;;;;;;4967878;28;19920;-75
2022/10/13 12:06:03;;;;;;;;;;;14.00;99.90;;;;;;4968757;28;19923;-75
2022/10/13 12:08:31;;;;;;;;;;;14.10;99.90;;;;;;4969742;28;19920;-76
2022/10/13 12:10:58;;;;;;;;;;;14.20;99.90;;;;;;4969537;28;19924;-76
2022/10/13 12:13:28;;;;;;;;;;;14.30;99.90;;;;;;4970426;28;19923;-76
2022/10/13 12:16:02;;;;;;;;;;;14.30;99.90;;;;;;4967662;28;20724;-75
2022/10/13 12:18:32;;;;;;;;;;;14.30;99.90;;;;;;4969109;28;19920;-75
2022/10/13 12:21:03;;;;;;;;;;;14.30;99.90;;;;;;4968856;28;20321;-75
2022/10/13 12:23:29;;;;;;;;;;;14.30;99.90;;;;;;4970273;28;19916;-75
2022/10/13 12:25:57;;;;;;;;;;;14.30;99.90;;;;;;4969776;28;20720;-76
2022/10/13 12:28:24;;;;;;;;;;;14.30;99.90;;;;;;4969567;28;19920;-75
2022/10/13 12:30:58;;;;;;;;;;;14.30;99.90;;;;;;4969763;28;19922;-75
2022/10/13 12:33:27;;;;;;;;;;;14.30;99.90;;;;;;4974761;28;19920;-75
2022/10/13 12:35:53;;;;;;;;;;;14.40;99.90;;;;;;4972809;28;19924;-75
2022/10/13 12:38:19;;;;;;;;;;;14.40;99.90;;;;;;4989298;28;19916;-76
2022/10/13 12:40:47;;;;;;;;;;;14.50;99.90;;;;;;4970967;28;20614;-75
2022/10/13 12:43:15;;;;;;;;;;;14.40;99.90;;;;;;4991654;28;19968;-76
2022/10/13 12:45:41;;;;;;;;;;;14.40;99.90;;;;;;4990945;28;20018;-75
2022/10/13 12:48:26;;;;;;;;;;;14.20;99.90;;;;;;4990349;28;20807;-75
2022/10/13 12:50:52;;;;;;;;;;;14.10;99.90;;;;;;4971001;28;20960;-75
2022/10/13 12:53:19;;;;;;;;;;;14.10;99.90;;;;;;4990366;28;20062;-76
2022/10/13 12:55:49;;;;;;;;;;;14.00;99.90;;;;;;4990834;28;21534;-76
2022/10/13 12:58:23;;;;;;;;;;;14.00;99.90;;;;;;4995479;28;19916;-76
2022/10/13 13:01:01;;;;;;;;;;;14.00;99.90;;;;;;4990777;28;19955;-76
2022/10/13 13:03:27;;;;;;;;;;;13.90;99.90;;;;;;4990560;28;20048;-74
2022/10/13 13:06:07;;;;;;;;;;;13.90;99.90;;;;;;4988592;28;19916;-74
2022/10/13 13:08:32;;;;;;;;;;;13.90;99.90;;;;;;4989356;28;19964;-74
2022/10/13 13:10:59;;;;;;;;;;;13.80;99.90;;;;;;4989345;28;20687;-73
2022/10/13 13:13:25;;;;;;;;;;;13.70;99.90;;;;;;4989915;28;19920;-73
2022/10/13 13:15:51;;;;;;;;;;;13.70;99.90;;;;;;4989490;28;23634;-72
2022/10/13 13:18:28;;;;;;;;;;;13.60;99.90;;;;;;4987219;28;21146;-73
2022/10/13 13:20:53;;;;;;;;;;;13.50;99.90;;;;;;4988566;28;19915;-74
2022/10/13 13:23:19;;;;;;;;;;;13.40;99.90;;;;;;4966196;28;20847;-73
2022/10/13 13:25:45;;;;;;;;;;;13.40;99.90;;;;;;4968186;28;19955;-74
2022/10/13 13:28:14;;;;;;;;;;;13.30;99.90;;;;;;4970079;28;19993;-74
2022/10/13 13:30:40;;;;;;;;;;;13.20;99.90;;;;;;4970507;28;20342;-73
2022/10/13 13:33:08;;;;;;;;;;;13.20;99.90;;;;;;4990737;28;20064;-73
2022/10/13 13:35:33;;;;;;;;;;;13.10;99.90;;;;;;4991411;28;19936;-73
2022/10/13 13:37:59;;;;;;;;;;;13.10;99.90;;;;;;5012920;28;19912;-73
2022/10/13 13:40:26;;;;;;;;;;;13.20;99.90;;;;;;5095654;28;19970;-73
2022/10/13 13:42:52;;;;;;;;;;;13.20;99.90;;;;;;5088615;28;19916;-73
2022/10/13 13:45:21;;;;;;;;;;;13.20;99.90;;;;;;4990397;28;20020;-72
2022/10/13 13:47:47;;;;;;;;;;;13.20;99.90;;;;;;4965969;28;19919;-73
2022/10/13 13:50:21;;;;;;;;;;;13.30;99.90;;;;;;4984239;28;19945;-74
2022/10/13 13:52:46;;;;;;;;;;;13.30;99.90;;;;;;4984868;28;19924;-73
2022/10/13 13:55:12;;;;;;;;;;;13.30;99.90;;;;;;4983757;28;20420;-73
2022/10/13 13:57:38;;;;;;;;;;;13.20;99.90;;;;;;4982761;28;23653;-73
2022/10/13 14:00:03;;;;;;;;;;;13.20;99.90;;;;;;4965136;28;19916;-73
2022/10/13 14:02:29;;;;;;;;;;;13.20;99.90;;;;;;4984431;28;20298;-73
2022/10/13 14:04:55;;;;;;;;;;;13.10;99.90;;;;;;4981663;28;19916;-73
2022/10/13 14:07:21;;;;;;;;;;;13.10;99.90;;;;;;4982958;28;20581;-74
2022/10/13 14:09:46;;;;;;;;;;;13.00;99.90;;;;;;4965471;28;20058;-73
2022/10/13 14:12:12;;;;;;;;;;;13.10;99.90;;;;;;4986081;28;19973;-73
2022/10/13 14:14:37;;;;;;;;;;;13.10;99.90;;;;;;4987444;28;19915;-73
2022/10/13 14:17:05;;;;;;;;;;;13.20;99.90;;;;;;4986815;28;19916;-73
2022/10/13 14:19:31;;;;;;;;;;;13.10;99.90;;;;;;4984954;28;19972;-72
2022/10/13 14:21:56;;;;;;;;;;;13.10;99.90;;;;;;4984808;28;19920;-72